sensor_id;sensor_type;location;lat;lon;timestamp;P1;durP1;ratioP1;P2;durP2;ratioP2
31442;SDS011;18065;55.876;9.830;2023-07-28T00:01:59;2.95;;;1.88;;
31442;SDS011;18065;55.876;9.830;2023-07-28T00:04:28;3.45;;;1.98;;
31442;SDS011;18065;55.876;9.830;2023-07-28T00:06:57;2.72;;;2.13;;
31442;SDS011;18065;55.876;9.830;2023-07-28T00:09:25;3.88;;;1.90;;
31442;SDS011;18065;55.876;9.830;2023-07-28T00:11:55;2.13;;;1.92;;
31442;SDS011;18065;55.876;9.830;2023-07-28T00:14:26;2.25;;;1.80;;
31442;SDS011;18065;55.876;9.830;2023-07-28T00:16:56;2.15;;;1.63;;
31442;SDS011;18065;55.876;9.830;2023-07-28T00:19:25;2.60;;;1.83;;
31442;SDS011;18065;55.876;9.830;2023-07-28T00:21:54;5.32;;;2.10;;
31442;SDS011;18065;55.876;9.830;2023-07-28T00:24:23;4.15;;;1.98;;
31442;SDS011;18065;55.876;9.830;2023-07-28T00:26:51;4.13;;;2.35;;
31442;SDS011;18065;55.876;9.830;2023-07-28T00:29:20;2.75;;;2.00;;
31442;SDS011;18065;55.876;9.830;2023-07-28T00:31:51;2.50;;;1.92;;
31442;SDS011;18065;55.876;9.830;2023-07-28T00:34:18;2.15;;;1.70;;
31442;SDS011;18065;55.876;9.830;2023-07-28T00:36:47;2.22;;;2.00;;
31442;SDS011;18065;55.876;9.830;2023-07-28T00:39:15;1.83;;;1.52;;
31442;SDS011;18065;55.876;9.830;2023-07-28T00:41:44;2.03;;;1.70;;
31442;SDS011;18065;55.876;9.830;2023-07-28T00:44:13;2.17;;;1.98;;
31442;SDS011;18065;55.876;9.830;2023-07-28T00:46:42;2.40;;;1.83;;
31442;SDS011;18065;55.876;9.830;2023-07-28T00:49:14;5.75;;;1.75;;
31442;SDS011;18065;55.876;9.830;2023-07-28T00:51:43;2.30;;;2.00;;
31442;SDS011;18065;55.876;9.830;2023-07-28T00:54:11;3.38;;;2.05;;
31442;SDS011;18065;55.876;9.830;2023-07-28T00:56:40;2.00;;;1.70;;
31442;SDS011;18065;55.876;9.830;2023-07-28T00:59:09;3.17;;;1.85;;
31442;SDS011;18065;55.876;9.830;2023-07-28T01:01:38;2.10;;;1.65;;
31442;SDS011;18065;55.876;9.830;2023-07-28T01:04:06;2.38;;;1.90;;
31442;SDS011;18065;55.876;9.830;2023-07-28T01:06:40;2.10;;;1.90;;
31442;SDS011;18065;55.876;9.830;2023-07-28T01:09:16;2.40;;;1.90;;
31442;SDS011;18065;55.876;9.830;2023-07-28T01:11:52;2.40;;;1.90;;
31442;SDS011;18065;55.876;9.830;2023-07-28T01:14:21;4.38;;;1.70;;
31442;SDS011;18065;55.876;9.830;2023-07-28T01:16:50;2.55;;;1.95;;
31442;SDS011;18065;55.876;9.830;2023-07-28T01:19:20;3.72;;;1.60;;
31442;SDS011;18065;55.876;9.830;2023-07-28T01:21:54;2.25;;;1.90;;
31442;SDS011;18065;55.876;9.830;2023-07-28T01:24:35;3.42;;;2.25;;
31442;SDS011;18065;55.876;9.830;2023-07-28T01:27:12;2.50;;;1.70;;
31442;SDS011;18065;55.876;9.830;2023-07-28T01:29:41;2.13;;;1.88;;
31442;SDS011;18065;55.876;9.830;2023-07-28T01:32:10;3.13;;;1.85;;
31442;SDS011;18065;55.876;9.830;2023-07-28T01:34:39;2.03;;;1.80;;
31442;SDS011;18065;55.876;9.830;2023-07-28T01:37:08;2.60;;;2.15;;
31442;SDS011;18065;55.876;9.830;2023-07-28T01:39:37;2.40;;;1.85;;
31442;SDS011;18065;55.876;9.830;2023-07-28T01:42:07;2.20;;;1.80;;
31442;SDS011;18065;55.876;9.830;2023-07-28T01:44:38;3.60;;;2.00;;
31442;SDS011;18065;55.876;9.830;2023-07-28T01:47:07;3.40;;;1.90;;
31442;SDS011;18065;55.876;9.830;2023-07-28T01:49:35;2.83;;;2.03;;
31442;SDS011;18065;55.876;9.830;2023-07-28T01:52:04;2.78;;;1.90;;
31442;SDS011;18065;55.876;9.830;2023-07-28T01:54:33;1.95;;;1.73;;
31442;SDS011;18065;55.876;9.830;2023-07-28T01:57:02;2.05;;;1.60;;
31442;SDS011;18065;55.876;9.830;2023-07-28T01:59:31;4.43;;;2.28;;
31442;SDS011;18065;55.876;9.830;2023-07-28T02:02:02;3.45;;;2.10;;
31442;SDS011;18065;55.876;9.830;2023-07-28T02:04:31;3.30;;;2.17;;
31442;SDS011;18065;55.876;9.830;2023-07-28T02:07:00;2.75;;;1.70;;
31442;SDS011;18065;55.876;9.830;2023-07-28T02:09:28;2.95;;;1.88;;
31442;SDS011;18065;55.876;9.830;2023-07-28T02:11:57;4.03;;;1.80;;
31442;SDS011;18065;55.876;9.830;2023-07-28T02:14:26;2.80;;;1.80;;
31442;SDS011;18065;55.876;9.830;2023-07-28T02:16:54;3.80;;;1.60;;
31442;SDS011;18065;55.876;9.830;2023-07-28T02:19:26;3.50;;;2.15;;
31442;SDS011;18065;55.876;9.830;2023-07-28T02:21:55;2.85;;;1.75;;
31442;SDS011;18065;55.876;9.830;2023-07-28T02:24:23;2.30;;;1.83;;
31442;SDS011;18065;55.876;9.830;2023-07-28T02:26:52;2.40;;;1.98;;
31442;SDS011;18065;55.876;9.830;2023-07-28T02:29:21;3.15;;;1.80;;
31442;SDS011;18065;55.876;9.830;2023-07-28T02:31:49;1.70;;;1.60;;
31442;SDS011;18065;55.876;9.830;2023-07-28T02:34:18;1.88;;;1.67;;
31442;SDS011;18065;55.876;9.830;2023-07-28T02:36:49;2.50;;;1.85;;
31442;SDS011;18065;55.876;9.830;2023-07-28T02:39:18;3.88;;;2.00;;
31442;SDS011;18065;55.876;9.830;2023-07-28T02:41:47;2.13;;;1.90;;
31442;SDS011;18065;55.876;9.830;2023-07-28T02:44:15;4.65;;;1.75;;
31442;SDS011;18065;55.876;9.830;2023-07-28T02:46:44;2.72;;;1.90;;
31442;SDS011;18065;55.876;9.830;2023-07-28T02:49:13;2.45;;;1.90;;
31442;SDS011;18065;55.876;9.830;2023-07-28T02:51:42;2.00;;;1.80;;
31442;SDS011;18065;55.876;9.830;2023-07-28T02:54:13;2.05;;;1.55;;
31442;SDS011;18065;55.876;9.830;2023-07-28T02:56:42;2.10;;;1.90;;
31442;SDS011;18065;55.876;9.830;2023-07-28T02:59:10;2.28;;;1.88;;
31442;SDS011;18065;55.876;9.830;2023-07-28T03:01:39;2.38;;;2.00;;
31442;SDS011;18065;55.876;9.830;2023-07-28T03:04:08;1.73;;;1.63;;
31442;SDS011;18065;55.876;9.830;2023-07-28T03:06:36;2.25;;;1.85;;
31442;SDS011;18065;55.876;9.830;2023-07-28T03:09:05;5.10;;;1.92;;
31442;SDS011;18065;55.876;9.830;2023-07-28T03:11:36;2.35;;;1.75;;
31442;SDS011;18065;55.876;9.830;2023-07-28T03:14:05;2.03;;;1.80;;
31442;SDS011;18065;55.876;9.830;2023-07-28T03:16:34;3.55;;;1.77;;
31442;SDS011;18065;55.876;9.830;2023-07-28T03:19:02;2.15;;;1.77;;
31442;SDS011;18065;55.876;9.830;2023-07-28T03:21:31;3.97;;;1.95;;
31442;SDS011;18065;55.876;9.830;2023-07-28T03:24:00;3.17;;;1.77;;
31442;SDS011;18065;55.876;9.830;2023-07-28T03:26:29;2.90;;;1.95;;
31442;SDS011;18065;55.876;9.830;2023-07-28T03:29:00;2.53;;;1.92;;
31442;SDS011;18065;55.876;9.830;2023-07-28T03:31:29;3.25;;;1.90;;
31442;SDS011;18065;55.876;9.830;2023-07-28T03:34:00;1.98;;;1.70;;
31442;SDS011;18065;55.876;9.830;2023-07-28T03:36:29;2.95;;;2.38;;
31442;SDS011;18065;55.876;9.830;2023-07-28T03:38:58;3.72;;;2.08;;
31442;SDS011;18065;55.876;9.830;2023-07-28T03:41:26;2.60;;;2.00;;
31442;SDS011;18065;55.876;9.830;2023-07-28T03:43:55;2.53;;;2.03;;
31442;SDS011;18065;55.876;9.830;2023-07-28T03:46:27;1.98;;;1.75;;
31442;SDS011;18065;55.876;9.830;2023-07-28T03:48:55;2.05;;;1.85;;
31442;SDS011;18065;55.876;9.830;2023-07-28T03:51:25;4.07;;;2.08;;
31442;SDS011;18065;55.876;9.830;2023-07-28T03:53:54;2.00;;;1.80;;
31442;SDS011;18065;55.876;9.830;2023-07-28T03:56:22;2.15;;;1.85;;
31442;SDS011;18065;55.876;9.830;2023-07-28T03:58:53;2.00;;;1.80;;
31442;SDS011;18065;55.876;9.830;2023-07-28T04:01:22;1.75;;;1.60;;
31442;SDS011;18065;55.876;9.830;2023-07-28T04:03:53;2.67;;;1.95;;
31442;SDS011;18065;55.876;9.830;2023-07-28T04:09:08;2.65;;;1.60;;
31442;SDS011;18065;55.876;9.830;2023-07-28T04:11:37;2.00;;;1.58;;
31442;SDS011;18065;55.876;9.830;2023-07-28T04:14:06;2.00;;;1.80;;
31442;SDS011;18065;55.876;9.830;2023-07-28T04:16:35;3.67;;;1.90;;
31442;SDS011;18065;55.876;9.830;2023-07-28T04:19:06;2.05;;;1.80;;
31442;SDS011;18065;55.876;9.830;2023-07-28T04:21:35;1.63;;;1.50;;
31442;SDS011;18065;55.876;9.830;2023-07-28T04:24:05;3.00;;;1.80;;
31442;SDS011;18065;55.876;9.830;2023-07-28T04:26:34;3.03;;;1.60;;
31442;SDS011;18065;55.876;9.830;2023-07-28T04:29:03;1.98;;;1.70;;
31442;SDS011;18065;55.876;9.830;2023-07-28T04:31:31;4.10;;;1.80;;
31442;SDS011;18065;55.876;9.830;2023-07-28T04:34:01;2.38;;;2.03;;
31442;SDS011;18065;55.876;9.830;2023-07-28T04:36:33;3.75;;;2.03;;
31442;SDS011;18065;55.876;9.830;2023-07-28T04:39:02;2.20;;;1.70;;
31442;SDS011;18065;55.876;9.830;2023-07-28T04:41:31;2.90;;;1.88;;
31442;SDS011;18065;55.876;9.830;2023-07-28T04:44:00;3.70;;;1.60;;
31442;SDS011;18065;55.876;9.830;2023-07-28T04:46:29;3.50;;;2.05;;
31442;SDS011;18065;55.876;9.830;2023-07-28T04:48:58;2.90;;;2.00;;
31442;SDS011;18065;55.876;9.830;2023-07-28T04:51:28;3.40;;;1.70;;
31442;SDS011;18065;55.876;9.830;2023-07-28T04:53:59;4.20;;;2.00;;
31442;SDS011;18065;55.876;9.830;2023-07-28T04:56:28;6.25;;;2.03;;
31442;SDS011;18065;55.876;9.830;2023-07-28T04:58:56;3.42;;;2.10;;
31442;SDS011;18065;55.876;9.830;2023-07-28T05:01:25;7.13;;;2.20;;
31442;SDS011;18065;55.876;9.830;2023-07-28T05:03:54;4.30;;;1.83;;
31442;SDS011;18065;55.876;9.830;2023-07-28T05:06:23;5.32;;;1.60;;
31442;SDS011;18065;55.876;9.830;2023-07-28T05:08:52;2.05;;;1.85;;
31442;SDS011;18065;55.876;9.830;2023-07-28T05:11:23;2.67;;;2.10;;
31442;SDS011;18065;55.876;9.830;2023-07-28T05:13:52;3.88;;;2.20;;
31442;SDS011;18065;55.876;9.830;2023-07-28T05:16:20;3.88;;;2.35;;
31442;SDS011;18065;55.876;9.830;2023-07-28T05:18:49;5.35;;;2.42;;
31442;SDS011;18065;55.876;9.830;2023-07-28T05:21:18;3.88;;;2.08;;
31442;SDS011;18065;55.876;9.830;2023-07-28T05:23:47;3.97;;;2.15;;
31442;SDS011;18065;55.876;9.830;2023-07-28T05:26:15;4.00;;;1.75;;
31442;SDS011;18065;55.876;9.830;2023-07-28T05:28:47;3.45;;;1.90;;
31442;SDS011;18065;55.876;9.830;2023-07-28T05:31:16;2.65;;;2.00;;
31442;SDS011;18065;55.876;9.830;2023-07-28T05:33:44;2.67;;;2.00;;
31442;SDS011;18065;55.876;9.830;2023-07-28T05:36:13;3.42;;;1.83;;
31442;SDS011;18065;55.876;9.830;2023-07-28T05:38:42;3.05;;;1.90;;
31442;SDS011;18065;55.876;9.830;2023-07-28T05:41:10;7.00;;;2.00;;
31442;SDS011;18065;55.876;9.830;2023-07-28T05:43:39;2.63;;;1.70;;
31442;SDS011;18065;55.876;9.830;2023-07-28T05:46:10;1.90;;;1.73;;
31442;SDS011;18065;55.876;9.830;2023-07-28T05:48:39;3.90;;;1.98;;
31442;SDS011;18065;55.876;9.830;2023-07-28T05:51:07;4.45;;;2.05;;
31442;SDS011;18065;55.876;9.830;2023-07-28T05:53:36;2.60;;;1.85;;
31442;SDS011;18065;55.876;9.830;2023-07-28T05:56:05;4.05;;;1.88;;
31442;SDS011;18065;55.876;9.830;2023-07-28T05:58:34;4.00;;;1.60;;
31442;SDS011;18065;55.876;9.830;2023-07-28T06:01:02;4.75;;;2.15;;
31442;SDS011;18065;55.876;9.830;2023-07-28T06:03:34;3.28;;;1.75;;
31442;SDS011;18065;55.876;9.830;2023-07-28T06:06:02;5.72;;;2.72;;
31442;SDS011;18065;55.876;9.830;2023-07-28T06:08:28;5.55;;;2.63;;
31442;SDS011;18065;55.876;9.830;2023-07-28T06:10:57;4.70;;;2.47;;
31442;SDS011;18065;55.876;9.830;2023-07-28T06:13:28;4.93;;;2.55;;
31442;SDS011;18065;55.876;9.830;2023-07-28T06:15:56;7.43;;;2.85;;
31442;SDS011;18065;55.876;9.830;2023-07-28T06:18:25;5.30;;;2.40;;
31442;SDS011;18065;55.876;9.830;2023-07-28T06:20:56;7.85;;;2.83;;
31442;SDS011;18065;55.876;9.830;2023-07-28T06:23:25;6.60;;;2.65;;
31442;SDS011;18065;55.876;9.830;2023-07-28T06:25:54;8.15;;;2.50;;
31442;SDS011;18065;55.876;9.830;2023-07-28T06:28:22;9.65;;;3.22;;
31442;SDS011;18065;55.876;9.830;2023-07-28T06:30:53;7.53;;;3.30;;
31442;SDS011;18065;55.876;9.830;2023-07-28T06:33:22;8.07;;;3.05;;
31442;SDS011;18065;55.876;9.830;2023-07-28T06:35:51;6.38;;;2.90;;
31442;SDS011;18065;55.876;9.830;2023-07-28T06:38:23;6.47;;;2.63;;
31442;SDS011;18065;55.876;9.830;2023-07-28T06:40:52;4.82;;;2.70;;
31442;SDS011;18065;55.876;9.830;2023-07-28T06:43:20;7.10;;;2.55;;
31442;SDS011;18065;55.876;9.830;2023-07-28T06:45:50;4.70;;;2.70;;
31442;SDS011;18065;55.876;9.830;2023-07-28T06:48:19;4.18;;;2.22;;
31442;SDS011;18065;55.876;9.830;2023-07-28T06:50:48;5.25;;;2.25;;
31442;SDS011;18065;55.876;9.830;2023-07-28T06:53:16;6.00;;;2.75;;
31442;SDS011;18065;55.876;9.830;2023-07-28T06:55:48;5.43;;;2.90;;
31442;SDS011;18065;55.876;9.830;2023-07-28T06:58:17;4.60;;;2.67;;
31442;SDS011;18065;55.876;9.830;2023-07-28T07:00:45;5.45;;;2.60;;
31442;SDS011;18065;55.876;9.830;2023-07-28T07:03:14;5.40;;;2.53;;
31442;SDS011;18065;55.876;9.830;2023-07-28T07:05:43;4.60;;;2.72;;
31442;SDS011;18065;55.876;9.830;2023-07-28T07:08:11;6.55;;;2.85;;
31442;SDS011;18065;55.876;9.830;2023-07-28T07:10:46;4.68;;;2.53;;
31442;SDS011;18065;55.876;9.830;2023-07-28T07:13:18;6.22;;;2.60;;
31442;SDS011;18065;55.876;9.830;2023-07-28T07:15:47;4.18;;;2.65;;
31442;SDS011;18065;55.876;9.830;2023-07-28T07:18:16;4.60;;;2.35;;
31442;SDS011;18065;55.876;9.830;2023-07-28T07:20:45;4.20;;;2.50;;
31442;SDS011;18065;55.876;9.830;2023-07-28T07:23:13;3.42;;;2.53;;
31442;SDS011;18065;55.876;9.830;2023-07-28T07:25:42;4.55;;;2.60;;
31442;SDS011;18065;55.876;9.830;2023-07-28T07:28:14;4.45;;;2.25;;
31442;SDS011;18065;55.876;9.830;2023-07-28T07:30:43;5.97;;;2.58;;
31442;SDS011;18065;55.876;9.830;2023-07-28T07:33:14;4.00;;;2.47;;
31442;SDS011;18065;55.876;9.830;2023-07-28T07:35:44;4.70;;;3.00;;
31442;SDS011;18065;55.876;9.830;2023-07-28T07:38:13;4.35;;;2.40;;
31442;SDS011;18065;55.876;9.830;2023-07-28T07:40:41;5.53;;;2.60;;
31442;SDS011;18065;55.876;9.830;2023-07-28T07:43:11;3.80;;;2.45;;
31442;SDS011;18065;55.876;9.830;2023-07-28T07:45:45;5.45;;;2.30;;
31442;SDS011;18065;55.876;9.830;2023-07-28T07:48:16;5.40;;;2.47;;
31442;SDS011;18065;55.876;9.830;2023-07-28T07:50:46;3.70;;;2.65;;
31442;SDS011;18065;55.876;9.830;2023-07-28T07:53:15;3.70;;;2.70;;
31442;SDS011;18065;55.876;9.830;2023-07-28T07:55:44;4.03;;;2.50;;
31442;SDS011;18065;55.876;9.830;2023-07-28T07:58:15;5.82;;;2.63;;
31442;SDS011;18065;55.876;9.830;2023-07-28T08:00:44;4.70;;;2.70;;
31442;SDS011;18065;55.876;9.830;2023-07-28T08:03:12;5.07;;;2.70;;
31442;SDS011;18065;55.876;9.830;2023-07-28T08:05:41;4.35;;;2.50;;
31442;SDS011;18065;55.876;9.830;2023-07-28T08:08:10;4.18;;;2.65;;
31442;SDS011;18065;55.876;9.830;2023-07-28T08:10:40;4.00;;;2.70;;
31442;SDS011;18065;55.876;9.830;2023-07-28T08:13:09;3.88;;;2.38;;
31442;SDS011;18065;55.876;9.830;2023-07-28T08:15:40;3.97;;;2.47;;
31442;SDS011;18065;55.876;9.830;2023-07-28T08:18:10;4.22;;;2.58;;
31442;SDS011;18065;55.876;9.830;2023-07-28T08:20:39;4.22;;;2.40;;
31442;SDS011;18065;55.876;9.830;2023-07-28T08:23:08;6.72;;;2.55;;
31442;SDS011;18065;55.876;9.830;2023-07-28T08:25:37;4.45;;;2.22;;
31442;SDS011;18065;55.876;9.830;2023-07-28T08:28:06;3.58;;;2.35;;
31442;SDS011;18065;55.876;9.830;2023-07-28T08:30:35;3.95;;;2.45;;
31442;SDS011;18065;55.876;9.830;2023-07-28T08:33:06;3.17;;;2.30;;
31442;SDS011;18065;55.876;9.830;2023-07-28T08:35:35;2.92;;;2.50;;
31442;SDS011;18065;55.876;9.830;2023-07-28T08:38:03;4.80;;;2.67;;
31442;SDS011;18065;55.876;9.830;2023-07-28T08:40:33;2.78;;;2.28;;
31442;SDS011;18065;55.876;9.830;2023-07-28T08:43:02;2.90;;;2.35;;
31442;SDS011;18065;55.876;9.830;2023-07-28T08:45:31;4.88;;;2.53;;
31442;SDS011;18065;55.876;9.830;2023-07-28T08:48:00;3.58;;;2.40;;
31442;SDS011;18065;55.876;9.830;2023-07-28T08:50:31;4.63;;;2.58;;
31442;SDS011;18065;55.876;9.830;2023-07-28T08:53:00;3.88;;;2.88;;
31442;SDS011;18065;55.876;9.830;2023-07-28T08:55:30;4.63;;;2.50;;
31442;SDS011;18065;55.876;9.830;2023-07-28T08:58:13;7.05;;;2.72;;
31442;SDS011;18065;55.876;9.830;2023-07-28T09:00:42;6.82;;;2.90;;
31442;SDS011;18065;55.876;9.830;2023-07-28T09:03:14;3.30;;;2.35;;
31442;SDS011;18065;55.876;9.830;2023-07-28T09:05:45;4.00;;;2.40;;
31442;SDS011;18065;55.876;9.830;2023-07-28T09:08:15;3.83;;;2.30;;
31442;SDS011;18065;55.876;9.830;2023-07-28T09:10:45;5.60;;;2.35;;
31442;SDS011;18065;55.876;9.830;2023-07-28T09:13:15;4.43;;;2.53;;
31442;SDS011;18065;55.876;9.830;2023-07-28T09:15:45;9.82;;;3.00;;
31442;SDS011;18065;55.876;9.830;2023-07-28T09:18:15;5.70;;;2.45;;
31442;SDS011;18065;55.876;9.830;2023-07-28T09:20:47;4.07;;;2.15;;
31442;SDS011;18065;55.876;9.830;2023-07-28T09:23:16;3.85;;;2.47;;
31442;SDS011;18065;55.876;9.830;2023-07-28T09:25:45;3.38;;;2.25;;
31442;SDS011;18065;55.876;9.830;2023-07-28T09:28:14;2.90;;;2.33;;
31442;SDS011;18065;55.876;9.830;2023-07-28T09:30:44;3.45;;;2.60;;
31442;SDS011;18065;55.876;9.830;2023-07-28T09:33:20;4.90;;;2.70;;
31442;SDS011;18065;55.876;9.830;2023-07-28T09:36:06;5.47;;;3.03;;
31442;SDS011;18065;55.876;9.830;2023-07-28T09:38:36;4.57;;;2.70;;
31442;SDS011;18065;55.876;9.830;2023-07-28T09:41:07;3.67;;;2.47;;
31442;SDS011;18065;55.876;9.830;2023-07-28T09:43:37;3.92;;;2.30;;
31442;SDS011;18065;55.876;9.830;2023-07-28T09:46:08;2.78;;;2.00;;
31442;SDS011;18065;55.876;9.830;2023-07-28T09:48:38;4.00;;;2.58;;
31442;SDS011;18065;55.876;9.830;2023-07-28T09:51:14;7.97;;;3.00;;
31442;SDS011;18065;55.876;9.830;2023-07-28T09:53:48;3.63;;;2.20;;
31442;SDS011;18065;55.876;9.830;2023-07-28T09:56:22;3.13;;;2.45;;
31442;SDS011;18065;55.876;9.830;2023-07-28T09:58:55;5.50;;;3.08;;
31442;SDS011;18065;55.876;9.830;2023-07-28T10:01:25;2.72;;;2.33;;
31442;SDS011;18065;55.876;9.830;2023-07-28T10:03:56;3.13;;;2.30;;
31442;SDS011;18065;55.876;9.830;2023-07-28T10:06:28;3.33;;;2.72;;
31442;SDS011;18065;55.876;9.830;2023-07-28T10:08:58;2.63;;;2.33;;
31442;SDS011;18065;55.876;9.830;2023-07-28T10:11:28;3.80;;;2.30;;
31442;SDS011;18065;55.876;9.830;2023-07-28T10:13:57;3.45;;;2.65;;
31442;SDS011;18065;55.876;9.830;2023-07-28T10:16:29;3.45;;;2.80;;
31442;SDS011;18065;55.876;9.830;2023-07-28T10:18:59;3.53;;;2.60;;
31442;SDS011;18065;55.876;9.830;2023-07-28T10:21:31;3.03;;;2.35;;
31442;SDS011;18065;55.876;9.830;2023-07-28T10:24:07;3.45;;;2.60;;
31442;SDS011;18065;55.876;9.830;2023-07-28T10:26:36;3.95;;;2.58;;
31442;SDS011;18065;55.876;9.830;2023-07-28T10:29:10;3.20;;;2.47;;
31442;SDS011;18065;55.876;9.830;2023-07-28T10:31:49;3.33;;;2.58;;
31442;SDS011;18065;55.876;9.830;2023-07-28T10:34:19;3.70;;;2.53;;
31442;SDS011;18065;55.876;9.830;2023-07-28T10:36:58;4.78;;;2.60;;
31442;SDS011;18065;55.876;9.830;2023-07-28T10:39:27;5.72;;;2.92;;
31442;SDS011;18065;55.876;9.830;2023-07-28T10:42:00;5.28;;;2.95;;
31442;SDS011;18065;55.876;9.830;2023-07-28T10:44:31;3.28;;;2.47;;
31442;SDS011;18065;55.876;9.830;2023-07-28T10:47:00;4.70;;;2.53;;
31442;SDS011;18065;55.876;9.830;2023-07-28T10:49:29;4.45;;;2.60;;
31442;SDS011;18065;55.876;9.830;2023-07-28T10:52:00;2.90;;;2.40;;
31442;SDS011;18065;55.876;9.830;2023-07-28T10:54:30;3.13;;;2.60;;
31442;SDS011;18065;55.876;9.830;2023-07-28T10:57:01;5.15;;;2.60;;
31442;SDS011;18065;55.876;9.830;2023-07-28T10:59:30;2.53;;;2.25;;
31442;SDS011;18065;55.876;9.830;2023-07-28T11:01:59;3.90;;;3.03;;
31442;SDS011;18065;55.876;9.830;2023-07-28T11:04:27;3.95;;;2.55;;
31442;SDS011;18065;55.876;9.830;2023-07-28T11:06:56;3.47;;;2.60;;
31442;SDS011;18065;55.876;9.830;2023-07-28T11:09:28;2.80;;;2.40;;
31442;SDS011;18065;55.876;9.830;2023-07-28T11:11:56;3.15;;;2.47;;
31442;SDS011;18065;55.876;9.830;2023-07-28T11:14:26;3.83;;;2.70;;
31442;SDS011;18065;55.876;9.830;2023-07-28T11:16:55;2.60;;;2.10;;
31442;SDS011;18065;55.876;9.830;2023-07-28T11:19:24;3.55;;;2.58;;
31442;SDS011;18065;55.876;9.830;2023-07-28T11:21:53;3.90;;;2.50;;
31442;SDS011;18065;55.876;9.830;2023-07-28T11:24:26;3.60;;;2.42;;
31442;SDS011;18065;55.876;9.830;2023-07-28T11:26:56;3.35;;;2.42;;
31442;SDS011;18065;55.876;9.830;2023-07-28T11:29:27;4.17;;;2.37;;
31442;SDS011;18065;55.876;9.830;2023-07-28T11:31:56;4.22;;;2.50;;
31442;SDS011;18065;55.876;9.830;2023-07-28T11:34:25;3.97;;;2.40;;
31442;SDS011;18065;55.876;9.830;2023-07-28T11:36:54;3.45;;;2.67;;
31442;SDS011;18065;55.876;9.830;2023-07-28T11:39:23;3.97;;;2.30;;
31442;SDS011;18065;55.876;9.830;2023-07-28T11:44:25;3.17;;;2.58;;
31442;SDS011;18065;55.876;9.830;2023-07-28T11:46:53;2.70;;;2.40;;
31442;SDS011;18065;55.876;9.830;2023-07-28T11:49:22;5.03;;;2.72;;
31442;SDS011;18065;55.876;9.830;2023-07-28T11:51:51;4.13;;;2.50;;
31442;SDS011;18065;55.876;9.830;2023-07-28T11:54:24;5.88;;;2.47;;
31442;SDS011;18065;55.876;9.830;2023-07-28T11:56:57;4.70;;;2.78;;
31442;SDS011;18065;55.876;9.830;2023-07-28T11:59:25;4.38;;;2.63;;
31442;SDS011;18065;55.876;9.830;2023-07-28T12:01:55;4.65;;;3.00;;
31442;SDS011;18065;55.876;9.830;2023-07-28T12:04:25;4.40;;;2.47;;
31442;SDS011;18065;55.876;9.830;2023-07-28T12:10:03;3.50;;;2.47;;
31442;SDS011;18065;55.876;9.830;2023-07-28T12:12:39;3.25;;;2.40;;
31442;SDS011;18065;55.876;9.830;2023-07-28T12:15:18;2.53;;;2.03;;
31442;SDS011;18065;55.876;9.830;2023-07-28T12:20:34;5.68;;;2.38;;
31442;SDS011;18065;55.876;9.830;2023-07-28T12:23:04;3.80;;;2.53;;
31442;SDS011;18065;55.876;9.830;2023-07-28T12:25:36;3.70;;;2.63;;
31442;SDS011;18065;55.876;9.830;2023-07-28T12:28:05;3.63;;;2.40;;
31442;SDS011;18065;55.876;9.830;2023-07-28T12:30:34;4.10;;;2.80;;
31442;SDS011;18065;55.876;9.830;2023-07-28T12:33:03;3.33;;;2.33;;
31442;SDS011;18065;55.876;9.830;2023-07-28T12:35:33;3.45;;;2.53;;
31442;SDS011;18065;55.876;9.830;2023-07-28T12:38:03;3.10;;;2.42;;
31442;SDS011;18065;55.876;9.830;2023-07-28T12:40:35;2.92;;;2.38;;
31442;SDS011;18065;55.876;9.830;2023-07-28T12:43:04;3.35;;;2.40;;
31442;SDS011;18065;55.876;9.830;2023-07-28T12:45:33;3.22;;;2.63;;
31442;SDS011;18065;55.876;9.830;2023-07-28T12:48:02;2.92;;;2.28;;
31442;SDS011;18065;55.876;9.830;2023-07-28T12:50:31;3.30;;;2.13;;
31442;SDS011;18065;55.876;9.830;2023-07-28T12:53:00;3.70;;;2.60;;
31442;SDS011;18065;55.876;9.830;2023-07-28T12:55:29;2.50;;;2.30;;
31442;SDS011;18065;55.876;9.830;2023-07-28T12:58:02;3.88;;;2.45;;
31442;SDS011;18065;55.876;9.830;2023-07-28T13:00:31;2.97;;;2.47;;
31442;SDS011;18065;55.876;9.830;2023-07-28T13:03:00;3.33;;;2.63;;
31442;SDS011;18065;55.876;9.830;2023-07-28T13:05:28;4.03;;;2.40;;
31442;SDS011;18065;55.876;9.830;2023-07-28T13:07:57;3.42;;;2.92;;
31442;SDS011;18065;55.876;9.830;2023-07-28T13:10:26;4.90;;;2.78;;
31442;SDS011;18065;55.876;9.830;2023-07-28T13:12:54;3.33;;;2.40;;
31442;SDS011;18065;55.876;9.830;2023-07-28T13:15:26;2.88;;;1.80;;
31442;SDS011;18065;55.876;9.830;2023-07-28T13:17:54;3.30;;;2.70;;
31442;SDS011;18065;55.876;9.830;2023-07-28T13:20:23;2.63;;;2.40;;
31442;SDS011;18065;55.876;9.830;2023-07-28T13:22:52;3.25;;;2.78;;
31442;SDS011;18065;55.876;9.830;2023-07-28T13:25:21;2.88;;;2.22;;
31442;SDS011;18065;55.876;9.830;2023-07-28T13:27:49;3.83;;;2.80;;
31442;SDS011;18065;55.876;9.830;2023-07-28T13:30:18;3.95;;;2.38;;
31442;SDS011;18065;55.876;9.830;2023-07-28T13:32:49;3.45;;;2.60;;
31442;SDS011;18065;55.876;9.830;2023-07-28T13:35:18;2.85;;;2.28;;
31442;SDS011;18065;55.876;9.830;2023-07-28T13:37:47;4.10;;;2.60;;
31442;SDS011;18065;55.876;9.830;2023-07-28T13:40:16;2.90;;;2.58;;
31442;SDS011;18065;55.876;9.830;2023-07-28T13:42:45;3.78;;;2.78;;
31442;SDS011;18065;55.876;9.830;2023-07-28T13:45:14;3.42;;;2.72;;
31442;SDS011;18065;55.876;9.830;2023-07-28T13:47:43;4.60;;;2.40;;
31442;SDS011;18065;55.876;9.830;2023-07-28T13:50:14;3.15;;;2.45;;
31442;SDS011;18065;55.876;9.830;2023-07-28T13:52:43;2.42;;;2.03;;
31442;SDS011;18065;55.876;9.830;2023-07-28T13:55:11;2.92;;;2.40;;
31442;SDS011;18065;55.876;9.830;2023-07-28T13:57:40;3.88;;;2.47;;
31442;SDS011;18065;55.876;9.830;2023-07-28T14:00:10;3.40;;;2.15;;
31442;SDS011;18065;55.876;9.830;2023-07-28T14:02:40;3.25;;;2.35;;
31442;SDS011;18065;55.876;9.830;2023-07-28T14:05:08;3.97;;;2.83;;
31442;SDS011;18065;55.876;9.830;2023-07-28T14:07:40;4.82;;;2.53;;
31442;SDS011;18065;55.876;9.830;2023-07-28T14:10:09;2.80;;;2.45;;
31442;SDS011;18065;55.876;9.830;2023-07-28T14:12:38;5.20;;;3.05;;
31442;SDS011;18065;55.876;9.830;2023-07-28T14:15:07;4.03;;;2.70;;
31442;SDS011;18065;55.876;9.830;2023-07-28T14:17:36;3.97;;;2.75;;
31442;SDS011;18065;55.876;9.830;2023-07-28T14:20:06;4.50;;;3.25;;
31442;SDS011;18065;55.876;9.830;2023-07-28T14:22:37;4.18;;;3.10;;
31442;SDS011;18065;55.876;9.830;2023-07-28T14:25:08;3.80;;;3.00;;
31442;SDS011;18065;55.876;9.830;2023-07-28T14:27:37;7.40;;;3.20;;
31442;SDS011;18065;55.876;9.830;2023-07-28T14:30:06;6.15;;;3.03;;
31442;SDS011;18065;55.876;9.830;2023-07-28T14:32:36;5.28;;;3.05;;
31442;SDS011;18065;55.876;9.830;2023-07-28T14:35:05;5.28;;;2.80;;
31442;SDS011;18065;55.876;9.830;2023-07-28T14:37:34;4.05;;;2.70;;
31442;SDS011;18065;55.876;9.830;2023-07-28T14:40:06;4.97;;;2.35;;
31442;SDS011;18065;55.876;9.830;2023-07-28T14:42:36;2.90;;;2.60;;
31442;SDS011;18065;55.876;9.830;2023-07-28T14:45:05;3.50;;;2.63;;
31442;SDS011;18065;55.876;9.830;2023-07-28T14:47:35;3.65;;;3.10;;
31442;SDS011;18065;55.876;9.830;2023-07-28T14:50:04;5.18;;;3.30;;
31442;SDS011;18065;55.876;9.830;2023-07-28T14:52:33;3.72;;;2.83;;
31442;SDS011;18065;55.876;9.830;2023-07-28T14:55:06;5.80;;;3.00;;
31442;SDS011;18065;55.876;9.830;2023-07-28T14:57:35;3.50;;;2.85;;
31442;SDS011;18065;55.876;9.830;2023-07-28T15:00:04;5.03;;;2.58;;
31442;SDS011;18065;55.876;9.830;2023-07-28T15:02:34;3.45;;;2.58;;
31442;SDS011;18065;55.876;9.830;2023-07-28T15:05:04;4.78;;;2.50;;
31442;SDS011;18065;55.876;9.830;2023-07-28T15:07:33;3.95;;;2.75;;
31442;SDS011;18065;55.876;9.830;2023-07-28T15:10:02;4.20;;;2.35;;
31442;SDS011;18065;55.876;9.830;2023-07-28T15:12:34;3.10;;;2.15;;
31442;SDS011;18065;55.876;9.830;2023-07-28T15:15:04;3.22;;;2.53;;